sensor_id;sensor_type;location;lat;lon;timestamp;pressure;altitude;pressure_sealevel;temperature;humidity
34081;BME280;20358;50.272;19.026;2023-04-05T00:00:10;98803.72;;;-3.09;46.78
34081;BME280;20358;50.272;19.026;2023-04-05T00:03:19;98803.81;;;-3.19;46.27
34081;BME280;20358;50.272;19.026;2023-04-05T00:06:28;98792.75;;;-3.27;47.32
34081;BME280;20358;50.272;19.026;2023-04-05T00:09:34;98797.09;;;-3.32;46.87
34081;BME280;20358;50.272;19.026;2023-04-05T00:12:40;98784.28;;;-3.38;46.83
34081;BME280;20358;50.272;19.026;2023-04-05T00:15:46;98787.72;;;-3.39;47.17
34081;BME280;20358;50.272;19.026;2023-04-05T00:18:57;98780.94;;;-3.46;47.40
34081;BME280;20358;50.272;19.026;2023-04-05T00:22:03;98780.13;;;-3.51;47.07
34081;BME280;20358;50.272;19.026;2023-04-05T00:25:13;98781.03;;;-3.55;46.73
34081;BME280;20358;50.272;19.026;2023-04-05T00:28:18;98766.41;;;-3.53;47.68
34081;BME280;20358;50.272;19.026;2023-04-05T00:31:25;98768.13;;;-3.53;47.06
34081;BME280;20358;50.272;19.026;2023-04-05T00:34:33;98766.31;;;-3.50;47.69
34081;BME280;20358;50.272;19.026;2023-04-05T00:37:41;98764.50;;;-3.42;48.44
34081;BME280;20358;50.272;19.026;2023-04-05T00:40:47;98766.16;;;-3.36;49.22
34081;BME280;20358;50.272;19.026;2023-04-05T00:43:54;98766.09;;;-3.32;48.30
34081;BME280;20358;50.272;19.026;2023-04-05T00:47:00;98770.47;;;-3.37;48.50
34081;BME280;20358;50.272;19.026;2023-04-05T00:50:11;98761.94;;;-3.42;49.51
34081;BME280;20358;50.272;19.026;2023-04-05T00:53:18;98762.00;;;-3.45;49.02
34081;BME280;20358;50.272;19.026;2023-04-05T00:56:25;98769.81;;;-3.51;48.47
34081;BME280;20358;50.272;19.026;2023-04-05T00:59:32;98759.47;;;-3.52;48.63
34081;BME280;20358;50.272;19.026;2023-04-05T01:02:43;98758.66;;;-3.53;48.56
34081;BME280;20358;50.272;19.026;2023-04-05T01:06:07;98758.59;;;-3.50;49.89
34081;BME280;20358;50.272;19.026;2023-04-05T01:09:32;98751.69;;;-3.49;49.10
34081;BME280;20358;50.272;19.026;2023-04-05T01:12:46;98752.50;;;-3.44;48.94
34081;BME280;20358;50.272;19.026;2023-04-05T01:15:52;98740.38;;;-3.39;49.29
34081;BME280;20358;50.272;19.026;2023-04-05T01:18:58;98738.66;;;-3.37;48.43
34081;BME280;20358;50.272;19.026;2023-04-05T01:26:39;98747.06;;;-3.22;49.16
34081;BME280;20358;50.272;19.026;2023-04-05T01:30:12;98746.97;;;-3.16;49.85
34081;BME280;20358;50.272;19.026;2023-04-05T01:33:34;98745.16;;;-3.09;50.73
34081;BME280;20358;50.272;19.026;2023-04-05T01:36:51;98739.91;;;-3.03;50.31
34081;BME280;20358;50.272;19.026;2023-04-05T01:40:02;98737.28;;;-2.98;50.06
34081;BME280;20358;50.272;19.026;2023-04-05T01:43:13;98690.22;;;-3.20;49.19
34081;BME280;20358;50.272;19.026;2023-04-05T01:46:23;98730.34;;;-2.96;49.07
34081;BME280;20358;50.272;19.026;2023-04-05T01:49:29;98728.56;;;-2.91;48.95
34081;BME280;20358;50.272;19.026;2023-04-05T01:52:36;98720.72;;;-2.85;49.11
34081;BME280;20358;50.272;19.026;2023-04-05T01:55:41;98726.56;;;-2.74;48.38
34081;BME280;20358;50.272;19.026;2023-04-05T01:58:48;98736.66;;;-2.59;49.06
34081;BME280;20358;50.272;19.026;2023-04-05T02:01:56;98728.81;;;-2.51;48.92
34081;BME280;20358;50.272;19.026;2023-04-05T02:05:03;98719.25;;;-2.48;48.82
34081;BME280;20358;50.272;19.026;2023-04-05T02:08:10;98722.59;;;-2.43;48.83
34081;BME280;20358;50.272;19.026;2023-04-05T02:11:16;98719.97;;;-2.38;49.00
34081;BME280;20358;50.272;19.026;2023-04-05T02:14:23;98717.44;;;-2.43;48.01
34081;BME280;20358;50.272;19.026;2023-04-05T02:17:33;98710.63;;;-2.47;48.90
34081;BME280;20358;50.272;19.026;2023-04-05T02:20:40;98714.03;;;-2.45;47.89
34081;BME280;20358;50.272;19.026;2023-04-05T02:23:46;98712.25;;;-2.41;48.01
34081;BME280;20358;50.272;19.026;2023-04-05T02:26:52;98709.53;;;-2.34;48.20
34081;BME280;20358;50.272;19.026;2023-04-05T02:29:59;98710.34;;;-2.32;48.31
34081;BME280;20358;50.272;19.026;2023-04-05T02:33:08;98702.72;;;-2.39;48.45
34081;BME280;20358;50.272;19.026;2023-04-05T02:36:14;98713.94;;;-2.39;48.09
34081;BME280;20358;50.272;19.026;2023-04-05T02:39:20;98708.91;;;-2.46;47.24
34081;BME280;20358;50.272;19.026;2023-04-05T02:42:26;98697.78;;;-2.53;48.39
34081;BME280;20358;50.272;19.026;2023-04-05T02:45:32;98698.53;;;-2.46;48.06
34081;BME280;20358;50.272;19.026;2023-04-05T02:48:42;98696.75;;;-2.41;47.42
34081;BME280;20358;50.272;19.026;2023-04-05T02:51:50;98688.84;;;-2.35;47.63
34081;BME280;20358;50.272;19.026;2023-04-05T02:54:58;98694.88;;;-2.35;47.63
34081;BME280;20358;50.272;19.026;2023-04-05T02:58:05;98698.47;;;-2.42;46.83
34081;BME280;20358;50.272;19.026;2023-04-05T03:01:19;98701.19;;;-2.51;47.98
34081;BME280;20358;50.272;19.026;2023-04-05T03:04:28;98702.13;;;-2.57;47.59
34081;BME280;20358;50.272;19.026;2023-04-05T03:07:38;98692.78;;;-2.64;48.49
34081;BME280;20358;50.272;19.026;2023-04-05T03:10:46;98693.69;;;-2.66;48.53
34081;BME280;20358;50.272;19.026;2023-04-05T03:13:52;98696.38;;;-2.72;48.08
34081;BME280;20358;50.272;19.026;2023-04-05T03:17:19;98699.16;;;-2.84;47.38
34081;BME280;20358;50.272;19.026;2023-04-05T03:20:36;98690.69;;;-2.95;48.13
34081;BME280;20358;50.272;19.026;2023-04-05T03:23:50;98691.72;;;-3.04;48.78
34081;BME280;20358;50.272;19.026;2023-04-05T03:27:03;98684.84;;;-3.06;47.91
34081;BME280;20358;50.272;19.026;2023-04-05T03:30:16;98685.69;;;-3.04;49.39
34081;BME280;20358;50.272;19.026;2023-04-05T03:33:29;98687.31;;;-3.00;49.41
34081;BME280;20358;50.272;19.026;2023-04-05T03:36:38;98689.00;;;-2.96;48.57
34081;BME280;20358;50.272;19.026;2023-04-05T03:40:09;98688.09;;;-2.95;48.05
34081;BME280;20358;50.272;19.026;2023-04-05T03:43:16;98692.38;;;-2.91;49.20
34081;BME280;20358;50.272;19.026;2023-04-05T03:46:22;98690.59;;;-2.88;48.79
34081;BME280;20358;50.272;19.026;2023-04-05T03:49:28;98692.22;;;-2.82;48.57
34081;BME280;20358;50.272;19.026;2023-04-05T03:52:37;98693.00;;;-2.76;49.55
34081;BME280;20358;50.272;19.026;2023-04-05T03:55:43;98693.72;;;-2.69;48.54
34081;BME280;20358;50.272;19.026;2023-04-05T03:58:54;98679.03;;;-2.66;48.40
34081;BME280;20358;50.272;19.026;2023-04-05T04:02:02;98684.25;;;-2.69;49.37
34081;BME280;20358;50.272;19.026;2023-04-05T04:05:10;98684.25;;;-2.67;48.52
34081;BME280;20358;50.272;19.026;2023-04-05T04:08:20;98688.72;;;-2.78;48.97
34081;BME280;20358;50.272;19.026;2023-04-05T04:11:27;98685.31;;;-2.80;48.59
34081;BME280;20358;50.272;19.026;2023-04-05T04:14:35;98681.06;;;-2.84;49.08
34081;BME280;20358;50.272;19.026;2023-04-05T04:18:23;98688.78;;;-2.81;49.27
34081;BME280;20358;50.272;19.026;2023-04-05T04:22:09;98688.72;;;-2.78;49.45
34081;BME280;20358;50.272;19.026;2023-04-05T04:25:45;98690.41;;;-2.77;48.83
34081;BME280;20358;50.272;19.026;2023-04-05T04:29:06;98684.53;;;-2.87;49.26
34081;BME280;20358;50.272;19.026;2023-04-05T04:32:33;98668.97;;;-2.82;49.15
34081;BME280;20358;50.272;19.026;2023-04-05T04:36:06;98679.25;;;-2.78;49.12
34081;BME280;20358;50.272;19.026;2023-04-05T04:39:59;98681.00;;;-2.81;49.75
34081;BME280;20358;50.272;19.026;2023-04-05T04:43:28;98684.50;;;-2.84;48.72
34081;BME280;20358;50.272;19.026;2023-04-05T04:46:50;98684.53;;;-2.87;49.03
34081;BME280;20358;50.272;19.026;2023-04-05T04:50:13;98692.28;;;-2.85;50.06
34081;BME280;20358;50.272;19.026;2023-04-05T04:53:21;98688.94;;;-2.90;49.96
34081;BME280;20358;50.272;19.026;2023-04-05T04:56:27;98689.00;;;-2.96;49.01
34081;BME280;20358;50.272;19.026;2023-04-05T04:59:37;98689.91;;;-3.00;49.42
34081;BME280;20358;50.272;19.026;2023-04-05T05:02:43;98689.97;;;-3.05;49.57
34081;BME280;20358;50.272;19.026;2023-04-05T05:05:51;98687.47;;;-3.09;49.60
34081;BME280;20358;50.272;19.026;2023-04-05T05:09:03;98689.22;;;-3.11;49.56
34081;BME280;20358;50.272;19.026;2023-04-05T05:12:20;98685.88;;;-3.17;50.73
34081;BME280;20358;50.272;19.026;2023-04-05T05:15:30;98691.78;;;-3.10;49.89
34081;BME280;20358;50.272;19.026;2023-04-05T05:18:37;98693.38;;;-3.03;49.83
34081;BME280;20358;50.272;19.026;2023-04-05T05:21:44;98698.47;;;-2.97;50.38
34081;BME280;20358;50.272;19.026;2023-04-05T05:24:52;98698.28;;;-2.85;50.85
34081;BME280;20358;50.272;19.026;2023-04-05T05:27:57;98701.56;;;-2.72;49.91
34081;BME280;20358;50.272;19.026;2023-04-05T05:31:07;98704.66;;;-2.52;49.93
34081;BME280;20358;50.272;19.026;2023-04-05T05:34:13;98700.00;;;-2.32;49.26
34081;BME280;20358;50.272;19.026;2023-04-05T05:37:28;98700.50;;;-2.10;48.97
34081;BME280;20358;50.272;19.026;2023-04-05T05:40:35;98697.53;;;-1.91;49.34
34081;BME280;20358;50.272;19.026;2023-04-05T05:43:42;98698.19;;;-1.79;48.40
34081;BME280;20358;50.272;19.026;2023-04-05T05:46:50;98707.41;;;-1.68;48.51
34081;BME280;20358;50.272;19.026;2023-04-05T05:49:57;98693.56;;;-1.65;47.94
34081;BME280;20358;50.272;19.026;2023-04-05T05:53:05;98695.34;;;-1.67;48.37
34081;BME280;20358;50.272;19.026;2023-04-05T05:56:11;98696.28;;;-1.71;47.91
34081;BME280;20358;50.272;19.026;2023-04-05T05:59:23;98692.03;;;-1.75;48.27
34081;BME280;20358;50.272;19.026;2023-04-05T06:02:32;98704.16;;;-1.77;48.95
34081;BME280;20358;50.272;19.026;2023-04-05T06:05:38;98700.63;;;-1.73;48.74
34081;BME280;20358;50.272;19.026;2023-04-05T06:08:45;98704.88;;;-1.69;48.61
34081;BME280;20358;50.272;19.026;2023-04-05T06:11:52;98692.75;;;-1.67;48.19
34081;BME280;20358;50.272;19.026;2023-04-05T06:15:00;98686.00;;;-1.74;48.12
34081;BME280;20358;50.272;19.026;2023-04-05T06:18:09;98695.44;;;-1.73;48.41
34081;BME280;20358;50.272;19.026;2023-04-05T06:21:16;98703.16;;;-1.69;48.74
34081;BME280;20358;50.272;19.026;2023-04-05T06:24:22;98699.59;;;-1.65;48.44
34081;BME280;20358;50.272;19.026;2023-04-05T06:27:28;98703.88;;;-1.62;48.62
34081;BME280;20358;50.272;19.026;2023-04-05T06:30:33;98702.03;;;-1.57;48.37
34081;BME280;20358;50.272;19.026;2023-04-05T06:33:43;98702.94;;;-1.58;48.08
34081;BME280;20358;50.272;19.026;2023-04-05T06:36:49;98708.16;;;-1.61;48.55
34081;BME280;20358;50.272;19.026;2023-04-05T06:39:55;98708.97;;;-1.59;48.20
34081;BME280;20358;50.272;19.026;2023-04-05T06:43:01;98708.97;;;-1.59;48.50
34081;BME280;20358;50.272;19.026;2023-04-05T06:46:07;98695.00;;;-1.52;48.69
34081;BME280;20358;50.272;19.026;2023-04-05T06:49:17;98701.22;;;-1.59;47.77
34081;BME280;20358;50.272;19.026;2023-04-05T06:52:24;98709.78;;;-1.56;48.23
34081;BME280;20358;50.272;19.026;2023-04-05T06:55:29;98712.38;;;-1.57;48.08
34081;BME280;20358;50.272;19.026;2023-04-05T06:58:35;98715.75;;;-1.52;47.80
34081;BME280;20358;50.272;19.026;2023-04-05T07:01:41;98712.19;;;-1.47;46.94
34081;BME280;20358;50.272;19.026;2023-04-05T07:04:51;98707.66;;;-1.37;47.09
34081;BME280;20358;50.272;19.026;2023-04-05T07:08:01;98698.66;;;-1.21;47.12
34081;BME280;20358;50.272;19.026;2023-04-05T07:11:08;98701.00;;;-1.09;47.22
34081;BME280;20358;50.272;19.026;2023-04-05T07:14:13;98698.94;;;-0.95;47.14
34081;BME280;20358;50.272;19.026;2023-04-05T07:17:20;98705.50;;;-0.79;46.52
34081;BME280;20358;50.272;19.026;2023-04-05T07:20:28;98704.69;;;-0.81;46.01
34081;BME280;20358;50.272;19.026;2023-04-05T07:23:34;98704.56;;;-0.76;46.48
34081;BME280;20358;50.272;19.026;2023-04-05T07:26:41;98716.50;;;-0.69;46.82
34081;BME280;20358;50.272;19.026;2023-04-05T07:29:47;98713.72;;;-0.61;45.92
34081;BME280;20358;50.272;19.026;2023-04-05T07:32:53;98707.53;;;-0.56;45.92
34081;BME280;20358;50.272;19.026;2023-04-05T07:36:03;98706.41;;;-0.46;45.94
34081;BME280;20358;50.272;19.026;2023-04-05T07:39:09;98703.72;;;-0.40;45.47
34081;BME280;20358;50.272;19.026;2023-04-05T07:42:16;98708.03;;;-0.39;45.87
34081;BME280;20358;50.272;19.026;2023-04-05T07:45:23;98703.66;;;-0.38;45.86
34081;BME280;20358;50.272;19.026;2023-04-05T07:48:30;98711.38;;;-0.35;45.86
34081;BME280;20358;50.272;19.026;2023-04-05T07:51:39;98718.22;;;-0.31;45.70
34081;BME280;20358;50.272;19.026;2023-04-05T07:54:45;98700.69;;;-0.23;45.94
34081;BME280;20358;50.272;19.026;2023-04-05T07:57:51;98700.28;;;-0.08;45.06
34081;BME280;20358;50.272;19.026;2023-04-05T08:00:58;98698.31;;;0.02;44.67
34081;BME280;20358;50.272;19.026;2023-04-05T08:04:04;98710.28;;;0.06;44.51
34081;BME280;20358;50.272;19.026;2023-04-05T08:07:13;98702.63;;;0.03;42.63
34081;BME280;20358;50.272;19.026;2023-04-05T08:10:19;98700.13;;;-0.02;42.63
34081;BME280;20358;50.272;19.026;2023-04-05T08:13:26;98708.47;;;0.09;41.94
34081;BME280;20358;50.272;19.026;2023-04-05T08:16:31;98612.84;;;-0.38;41.51
34081;BME280;20358;50.272;19.026;2023-04-05T08:19:38;98704.59;;;0.25;40.26
34081;BME280;20358;50.272;19.026;2023-04-05T08:22:47;98682.72;;;0.32;39.73
34081;BME280;20358;50.272;19.026;2023-04-05T08:25:53;98701.09;;;0.57;39.99
34081;BME280;20358;50.272;19.026;2023-04-05T08:28:59;98696.13;;;0.49;37.79
34081;BME280;20358;50.272;19.026;2023-04-05T08:32:06;98691.81;;;0.48;38.11
34081;BME280;20358;50.272;19.026;2023-04-05T08:35:12;98655.78;;;0.36;38.03
34081;BME280;20358;50.272;19.026;2023-04-05T08:38:21;98689.56;;;0.66;37.90
34081;BME280;20358;50.272;19.026;2023-04-05T08:41:34;98662.13;;;0.55;37.59
34081;BME280;20358;50.272;19.026;2023-04-05T08:44:50;98692.53;;;0.83;36.05
34081;BME280;20358;50.272;19.026;2023-04-05T08:47:56;98693.56;;;0.77;36.33
34081;BME280;20358;50.272;19.026;2023-04-05T08:51:03;98684.34;;;0.95;37.20
34081;BME280;20358;50.272;19.026;2023-04-05T08:54:13;98683.47;;;0.96;36.46
34081;BME280;20358;50.272;19.026;2023-04-05T08:57:23;98684.88;;;1.06;35.98
34081;BME280;20358;50.272;19.026;2023-04-05T09:00:31;98697.25;;;0.98;35.61
34081;BME280;20358;50.272;19.026;2023-04-05T09:03:41;98523.50;;;0.01;36.19
34081;BME280;20358;50.272;19.026;2023-04-05T09:06:49;98696.97;;;1.07;35.47
34081;BME280;20358;50.272;19.026;2023-04-05T09:10:02;98695.91;;;0.85;35.39
34081;BME280;20358;50.272;19.026;2023-04-05T09:13:10;98686.41;;;0.84;35.81
34081;BME280;20358;50.272;19.026;2023-04-05T09:16:18;98685.16;;;0.97;36.45
34081;BME280;20358;50.272;19.026;2023-04-05T09:19:25;98678.44;;;0.90;36.38
34081;BME280;20358;50.272;19.026;2023-04-05T09:22:41;98672.19;;;0.68;36.34
34081;BME280;20358;50.272;19.026;2023-04-05T09:25:50;98696.47;;;0.67;36.89
34081;BME280;20358;50.272;19.026;2023-04-05T09:28:57;98696.00;;;0.52;37.02
34081;BME280;20358;50.272;19.026;2023-04-05T09:32:04;98694.63;;;0.39;37.09
34081;BME280;20358;50.272;19.026;2023-04-05T09:35:18;98699.03;;;0.37;37.44
34081;BME280;20358;50.272;19.026;2023-04-05T09:38:43;98685.81;;;0.45;36.74
34081;BME280;20358;50.272;19.026;2023-04-05T09:42:06;98690.50;;;0.63;36.71
34081;BME280;20358;50.272;19.026;2023-04-05T09:45:16;98639.84;;;0.48;36.25
34081;BME280;20358;50.272;19.026;2023-04-05T09:48:45;98684.09;;;0.75;35.71
34081;BME280;20358;50.272;19.026;2023-04-05T09:51:51;98685.28;;;0.65;35.25
34081;BME280;20358;50.272;19.026;2023-04-05T09:54:59;98662.44;;;0.45;35.63
34081;BME280;20358;50.272;19.026;2023-04-05T09:58:18;98675.44;;;0.74;36.25
34081;BME280;20358;50.272;19.026;2023-04-05T10:01:27;98691.97;;;0.72;36.12
34081;BME280;20358;50.272;19.026;2023-04-05T10:04:38;98670.19;;;0.76;36.12
34081;BME280;20358;50.272;19.026;2023-04-05T10:07:46;98661.03;;;0.92;35.77
34081;BME280;20358;50.272;19.026;2023-04-05T10:10:53;98667.16;;;1.17;35.98
34081;BME280;20358;50.272;19.026;2023-04-05T10:14:05;98572.00;;;0.85;35.82
34081;BME280;20358;50.272;19.026;2023-04-05T10:17:19;98553.44;;;0.96;35.35
34081;BME280;20358;50.272;19.026;2023-04-05T10:20:32;98658.66;;;1.64;34.85
34081;BME280;20358;50.272;19.026;2023-04-05T10:23:45;98667.69;;;1.54;34.05
34081;BME280;20358;50.272;19.026;2023-04-05T10:27:04;98662.38;;;1.57;34.72
34081;BME280;20358;50.272;19.026;2023-04-05T10:30:16;98653.00;;;1.53;33.75
34081;BME280;20358;50.272;19.026;2023-04-05T10:33:29;98645.56;;;1.41;34.83
34081;BME280;20358;50.272;19.026;2023-04-05T10:36:49;98650.97;;;1.35;35.63
34081;BME280;20358;50.272;19.026;2023-04-05T10:40:03;98655.69;;;1.50;35.30
34081;BME280;20358;50.272;19.026;2023-04-05T10:43:20;98642.31;;;1.61;34.62
34081;BME280;20358;50.272;19.026;2023-04-05T10:46:31;98662.38;;;1.57;34.24
34081;BME280;20358;50.272;19.026;2023-04-05T10:49:39;98653.47;;;1.38;34.54
34081;BME280;20358;50.272;19.026;2023-04-05T10:52:52;98645.88;;;1.32;34.45
34081;BME280;20358;50.272;19.026;2023-04-05T10:55:57;98638.88;;;1.34;34.63
34081;BME280;20358;50.272;19.026;2023-04-05T10:59:07;98631.91;;;1.35;33.73
34081;BME280;20358;50.272;19.026;2023-04-05T11:02:19;98640.69;;;1.32;34.20
34081;BME280;20358;50.272;19.026;2023-04-05T11:05:31;98623.34;;;1.31;34.96
34081;BME280;20358;50.272;19.026;2023-04-05T11:08:40;98646.00;;;1.54;34.77
34081;BME280;20358;50.272;19.026;2023-04-05T11:11:50;98645.53;;;1.67;33.64
34081;BME280;20358;50.272;19.026;2023-04-05T11:15:27;98628.94;;;1.71;35.04
34081;BME280;20358;50.272;19.026;2023-04-05T11:18:43;98630.19;;;1.84;33.76
34081;BME280;20358;50.272;19.026;2023-04-05T11:22:00;98635.38;;;1.84;34.03
34081;BME280;20358;50.272;19.026;2023-04-05T11:25:21;98621.56;;;1.82;33.71
34081;BME280;20358;50.272;19.026;2023-04-05T11:28:32;98629.03;;;1.68;33.74
34081;BME280;20358;50.272;19.026;2023-04-05T11:31:56;98626.78;;;1.82;34.41
34081;BME280;20358;50.272;19.026;2023-04-05T11:35:12;98623.47;;;2.04;34.24
34081;BME280;20358;50.272;19.026;2023-04-05T11:38:24;98618.16;;;2.30;33.93
34081;BME280;20358;50.272;19.026;2023-04-05T11:41:32;98612.16;;;2.51;32.39
34081;BME280;20358;50.272;19.026;2023-04-05T11:44:42;98614.72;;;2.74;32.77
34081;BME280;20358;50.272;19.026;2023-04-05T11:47:49;98620.91;;;2.93;32.88
34081;BME280;20358;50.272;19.026;2023-04-05T11:50:59;98627.69;;;2.76;32.42
34081;BME280;20358;50.272;19.026;2023-04-05T11:54:05;98634.13;;;2.67;32.54
34081;BME280;20358;50.272;19.026;2023-04-05T11:57:14;98622.00;;;2.66;33.43
34081;BME280;20358;50.272;19.026;2023-04-05T12:00:23;98617.94;;;2.36;33.62
34081;BME280;20358;50.272;19.026;2023-04-05T12:03:30;98615.53;;;2.53;34.32
34081;BME280;20358;50.272;19.026;2023-04-05T12:06:39;98635.13;;;2.63;34.17
34081;BME280;20358;50.272;19.026;2023-04-05T12:10:00;98577.31;;;2.30;34.27
34081;BME280;20358;50.272;19.026;2023-04-05T12:13:12;98624.88;;;2.59;34.45
34081;BME280;20358;50.272;19.026;2023-04-05T12:16:19;98608.59;;;2.30;34.17
34081;BME280;20358;50.272;19.026;2023-04-05T12:19:29;98612.84;;;2.33;33.80
34081;BME280;20358;50.272;19.026;2023-04-05T12:22:40;98596.75;;;2.22;33.63
34081;BME280;20358;50.272;19.026;2023-04-05T12:25:48;98606.47;;;2.17;32.21
34081;BME280;20358;50.272;19.026;2023-04-05T12:28:57;98605.72;;;2.13;33.94
34081;BME280;20358;50.272;19.026;2023-04-05T12:32:04;98594.13;;;2.22;32.17
34081;BME280;20358;50.272;19.026;2023-04-05T12:35:12;98602.06;;;2.42;33.52
34081;BME280;20358;50.272;19.026;2023-04-05T12:38:24;98596.88;;;2.64;33.65
34081;BME280;20358;50.272;19.026;2023-04-05T12:41:32;98587.19;;;2.89;32.31
34081;BME280;20358;50.272;19.026;2023-04-05T12:44:38;98597.50;;;3.14;32.31
34081;BME280;20358;50.272;19.026;2023-04-05T12:47:50;98598.03;;;3.22;33.69
34081;BME280;20358;50.272;19.026;2023-04-05T12:50:57;98593.59;;;3.24;31.63
34081;BME280;20358;50.272;19.026;2023-04-05T12:54:14;98600.38;;;3.28;32.10
34081;BME280;20358;50.272;19.026;2023-04-05T12:57:29;98592.16;;;3.17;31.62
34081;BME280;20358;50.272;19.026;2023-04-05T13:00:36;98587.91;;;3.14;32.01
34081;BME280;20358;50.272;19.026;2023-04-05T13:03:42;98596.84;;;3.09;31.65
34081;BME280;20358;50.272;19.026;2023-04-05T13:06:51;98598.63;;;3.06;32.91
34081;BME280;20358;50.272;19.026;2023-04-05T13:10:00;98592.22;;;2.93;32.99
34081;BME280;20358;50.272;19.026;2023-04-05T13:13:06;98593.81;;;2.97;31.87
34081;BME280;20358;50.272;19.026;2023-04-05T13:16:12;98585.34;;;3.13;32.65
34081;BME280;20358;50.272;19.026;2023-04-05T13:19:19;98587.28;;;3.29;32.44
34081;BME280;20358;50.272;19.026;2023-04-05T13:22:24;98587.34;;;3.48;31.57
34081;BME280;20358;50.272;19.026;2023-04-05T13:25:34;98606.53;;;3.47;32.05
34081;BME280;20358;50.272;19.026;2023-04-05T13:28:40;98590.41;;;3.37;32.70
34081;BME280;20358;50.272;19.026;2023-04-05T13:31:47;98579.25;;;3.34;31.95
34081;BME280;20358;50.272;19.026;2023-04-05T13:34:52;98588.19;;;3.28;32.11
34081;BME280;20358;50.272;19.026;2023-04-05T13:37:59;98584.13;;;3.21;32.95
34081;BME280;20358;50.272;19.026;2023-04-05T13:41:08;98582.50;;;3.19;32.12
34081;BME280;20358;50.272;19.026;2023-04-05T13:44:17;98573.06;;;3.15;31.51
34081;BME280;20358;50.272;19.026;2023-04-05T13:47:23;98591.00;;;3.24;30.85
34081;BME280;20358;50.272;19.026;2023-04-05T13:50:30;98571.94;;;3.42;30.81
34081;BME280;20358;50.272;19.026;2023-04-05T13:53:35;98570.44;;;3.56;30.72
34081;BME280;20358;50.272;19.026;2023-04-05T13:56:45;98588.88;;;3.74;31.80
34081;BME280;20358;50.272;19.026;2023-04-05T13:59:50;98576.66;;;3.54;31.52
34081;BME280;20358;50.272;19.026;2023-04-05T14:02:57;98591.78;;;3.46;31.85
34081;BME280;20358;50.272;19.026;2023-04-05T14:06:03;98582.63;;;3.56;32.17
34081;BME280;20358;50.272;19.026;2023-04-05T14:09:12;98592.84;;;3.42;31.97
34081;BME280;20358;50.272;19.026;2023-04-05T14:12:20;98583.41;;;3.38;33.25
34081;BME280;20358;50.272;19.026;2023-04-05T14:15:27;98591.00;;;3.44;33.21
34081;BME280;20358;50.272;19.026;2023-04-05T14:18:34;98590.88;;;3.47;32.90
34081;BME280;20358;50.272;19.026;2023-04-05T14:21:41;98590.75;;;3.50;32.87
34081;BME280;20358;50.272;19.026;2023-04-05T14:24:46;98585.84;;;3.42;31.43
34081;BME280;20358;50.272;19.026;2023-04-05T14:27:56;98584.34;;;3.37;32.02
34081;BME280;20358;50.272;19.026;2023-04-05T14:31:02;98590.16;;;3.43;32.73
34081;BME280;20358;50.272;19.026;2023-04-05T14:34:09;98585.78;;;3.44;32.86
34081;BME280;20358;50.272;19.026;2023-04-05T14:37:14;98579.13;;;3.57;32.13
34081;BME280;20358;50.272;19.026;2023-04-05T14:40:21;98575.59;;;3.78;32.56
34081;BME280;20358;50.272;19.026;2023-04-05T14:43:30;98572.84;;;4.01;31.38
34081;BME280;20358;50.272;19.026;2023-04-05T14:46:37;98572.88;;;4.20;31.12
34081;BME280;20358;50.272;19.026;2023-04-05T14:49:42;98578.53;;;4.29;31.47
34081;BME280;20358;50.272;19.026;2023-04-05T14:52:49;98585.31;;;4.34;30.80
34081;BME280;20358;50.272;19.026;2023-04-05T14:55:56;98594.34;;;4.26;30.74
34081;BME280;20358;50.272;19.026;2023-04-05T14:59:05;98582.34;;;4.22;30.48
34081;BME280;20358;50.272;19.026;2023-04-05T15:02:12;98578.53;;;4.29;30.99
34081;BME280;20358;50.272;19.026;2023-04-05T15:05:18;98579.94;;;4.37;30.78
34081;BME280;20358;50.272;19.026;2023-04-05T15:08:24;98581.78;;;4.35;31.44
34081;BME280;20358;50.272;19.026;2023-04-05T15:11:31;98577.69;;;4.48;31.43
34081;BME280;20358;50.272;19.026;2023-04-05T15:14:42;98578.81;;;4.42;30.30
34081;BME280;20358;50.272;19.026;2023-04-05T15:17:50;98583.50;;;4.36;29.94
34081;BME280;20358;50.272;19.026;2023-04-05T15:20:56;98585.16;;;4.18;29.87
34081;BME280;20358;50.272;19.026;2023-04-05T15:24:05;98570.63;;;4.12;30.09
34081;BME280;20358;50.272;19.026;2023-04-05T15:27:11;98577.78;;;3.89;31.43
34081;BME280;20358;50.272;19.026;2023-04-05T15:30:20;98570.78;;;3.89;30.92
34081;BME280;20358;50.272;19.026;2023-04-05T15:33:26;98574.81;;;3.96;30.91
34081;BME280;20358;50.272;19.026;2023-04-05T15:36:33;98578.03;;;3.83;31.72
34081;BME280;20358;50.272;19.026;2023-04-05T15:39:38;98576.19;;;3.85;31.73
34081;BME280;20358;50.272;19.026;2023-04-05T15:42:45;98575.34;;;3.84;30.92
34081;BME280;20358;50.272;19.026;2023-04-05T15:45:53;98564.63;;;3.90;31.43
34081;BME280;20358;50.272;19.026;2023-04-05T15:49:00;98576.78;;;3.91;31.61
34081;BME280;20358;50.272;19.026;2023-04-05T15:52:06;98571.94;;;3.82;30.90
34081;BME280;20358;50.272;19.026;2023-04-05T15:55:13;98576.06;;;3.88;31.27
34081;BME280;20358;50.272;19.026;2023-04-05T15:58:19;98580.06;;;3.96;32.17
34081;BME280;20358;50.272;19.026;2023-04-05T16:01:28;98581.81;;;3.96;31.12
34081;BME280;20358;50.272;19.026;2023-04-05T16:04:34;98584.75;;;3.68;32.03
34081;BME280;20358;50.272;19.026;2023-04-05T16:07:41;98579.25;;;3.74;31.80
34081;BME280;20358;50.272;19.026;2023-04-05T16:10:47;98589.63;;;3.76;31.85
34081;BME280;20358;50.272;19.026;2023-04-05T16:13:54;98587.13;;;3.94;32.35
34081;BME280;20358;50.272;19.026;2023-04-05T16:17:02;98594.53;;;4.03;32.23
34081;BME280;20358;50.272;19.026;2023-04-05T16:20:09;98595.59;;;3.99;31.89
34081;BME280;20358;50.272;19.026;2023-04-05T16:23:16;98601.22;;;3.90;31.88
34081;BME280;20358;50.272;19.026;2023-04-05T16:26:22;98592.34;;;3.94;31.71
34081;BME280;20358;50.272;19.026;2023-04-05T16:29:28;98601.34;;;3.87;32.33
34081;BME280;20358;50.272;19.026;2023-04-05T16:32:37;98597.19;;;3.83;31.06
34081;BME280;20358;50.272;19.026;2023-04-05T16:35:43;98586.72;;;3.83;31.69
34081;BME280;20358;50.272;19.026;2023-04-05T16:38:50;98597.00;;;3.66;31.59
34081;BME280;20358;50.272;19.026;2023-04-05T16:41:56;98598.97;;;3.61;32.36